Time;durP1;ratioP1;P1;durP2;ratioP2;P2;SDS_P1;SDS_P2;PMS_P1;PMS_P2;Temp;Humidity;BMP_temperature;BMP_pressure;BME280_temperature;BME280_humidity;BME280_pressure;Samples;Min_cycle;Max_cycle;Signal;HPM_P1;HPM_P2
2021/07/28 00:01:18;;;;;;;6.30;4.97;;;;;;;;;;5158983;27;20061;-82
2021/07/28 00:03:44;;;;;;;8.73;6.72;;;;;;;;;;5158471;27;20059;-82
2021/07/28 00:06:17;;;;;;;7.85;6.97;;;;;;;;;;5163630;27;20023;-82
2021/07/28 00:08:43;;;;;;;6.97;6.28;;;;;;;;;;5171624;27;20030;-82
2021/07/28 00:11:13;;;;;;;8.30;6.80;;;;;;;;;;5183641;27;20564;-83
2021/07/28 00:13:39;;;;;;;6.55;4.65;;;;;;;;;;5180377;27;20021;-82
2021/07/28 00:16:10;;;;;;;10.10;6.78;;;;;;;;;;5158548;27;20026;-83
2021/07/28 00:18:48;;;;;;;7.75;5.20;;;;;;;;;;5158841;27;20027;-82
2021/07/28 00:23:57;;;;;;;7.38;6.53;;;;;;;;;;5158183;27;20083;-83
2021/07/28 00:26:23;;;;;;;8.18;5.35;;;;;;;;;;5157915;27;20399;-82
2021/07/28 00:28:48;;;;;;;6.15;4.35;;;;;;;;;;5158093;27;20036;-82
2021/07/28 00:31:14;;;;;;;6.07;5.00;;;;;;;;;;5159742;27;20029;-82
2021/07/28 00:33:40;;;;;;;8.73;5.40;;;;;;;;;;5157825;27;20485;-82
2021/07/28 00:36:05;;;;;;;8.63;6.50;;;;;;;;;;5157860;27;20018;-82
2021/07/28 00:38:31;;;;;;;8.55;5.97;;;;;;;;;;5157847;27;20496;-82
2021/07/28 00:40:56;;;;;;;7.22;5.82;;;;;;;;;;5157725;27;20025;-82
2021/07/28 00:43:29;;;;;;;6.15;3.25;;;;;;;;;;5157742;27;20431;-82
2021/07/28 00:45:54;;;;;;;7.10;5.78;;;;;;;;;;5157692;27;20019;-82
2021/07/28 00:48:20;;;;;;;10.13;6.38;;;;;;;;;;5157600;27;20023;-82
2021/07/28 00:50:46;;;;;;;8.13;5.63;;;;;;;;;;5139402;27;20098;-82
2021/07/28 00:53:18;;;;;;;9.02;7.75;;;;;;;;;;5157662;27;20018;-82
2021/07/28 00:55:49;;;;;;;7.00;5.03;;;;;;;;;;5157602;27;20023;-82
2021/07/28 00:58:19;;;;;;;6.82;4.57;;;;;;;;;;5138862;27;20046;-82
2021/07/28 01:00:45;;;;;;;7.35;4.80;;;;;;;;;;5138732;27;20027;-82
2021/07/28 01:03:12;;;;;;;7.53;4.78;;;;;;;;;;5158078;27;20054;-82
2021/07/28 01:05:38;;;;;;;8.52;4.25;;;;;;;;;;5138711;27;20440;-82
2021/07/28 01:08:05;;;;;;;7.32;5.93;;;;;;;;;;5157237;27;20042;-83
2021/07/28 01:10:31;;;;;;;7.10;6.20;;;;;;;;;;5157172;27;20022;-82
2021/07/28 01:12:57;;;;;;;8.02;6.97;;;;;;;;;;5157203;27;20030;-82
2021/07/28 01:18:04;;;;;;;8.30;5.10;;;;;;;;;;5156874;27;20118;-82
2021/07/28 01:20:44;;;;;;;6.00;4.15;;;;;;;;;;5157221;27;20424;-82
2021/07/28 01:23:13;;;;;;;7.88;6.35;;;;;;;;;;5156898;27;20019;-83
2021/07/28 01:25:40;;;;;;;9.55;6.45;;;;;;;;;;5156803;27;20026;-82
2021/07/28 01:28:09;;;;;;;6.10;5.07;;;;;;;;;;5156992;27;20431;-82
2021/07/28 01:30:34;;;;;;;11.18;5.85;;;;;;;;;;5157008;27;20487;-82
2021/07/28 01:33:02;;;;;;;8.18;7.05;;;;;;;;;;5156688;27;20039;-82
2021/07/28 01:35:31;;;;;;;8.38;6.15;;;;;;;;;;5156728;27;20022;-82
2021/07/28 01:37:57;;;;;;;7.22;6.05;;;;;;;;;;5137572;27;20019;-82
2021/07/28 01:40:22;;;;;;;7.53;6.25;;;;;;;;;;5156381;27;20038;-82
2021/07/28 01:42:48;;;;;;;7.30;6.20;;;;;;;;;;5156590;27;20047;-82
2021/07/28 01:45:16;;;;;;;7.15;5.53;;;;;;;;;;5156348;27;20027;-83
2021/07/28 01:47:42;;;;;;;7.20;6.47;;;;;;;;;;5156425;27;20026;-83
2021/07/28 01:50:09;;;;;;;9.73;6.25;;;;;;;;;;5156929;27;20027;-82
2021/07/28 01:52:36;;;;;;;5.80;4.65;;;;;;;;;;5137680;27;20461;-82
2021/07/28 01:55:09;;;;;;;8.07;4.72;;;;;;;;;;5137706;27;20019;-82
2021/07/28 01:57:35;;;;;;;7.07;6.35;;;;;;;;;;5156352;27;20027;-82
2021/07/28 02:00:00;;;;;;;7.38;6.00;;;;;;;;;;5156091;27;20485;-82
2021/07/28 02:02:36;;;;;;;9.82;4.20;;;;;;;;;;5156435;27;20465;-82
2021/07/28 02:05:03;;;;;;;6.78;5.18;;;;;;;;;;5156268;27;20071;-82
2021/07/28 02:07:30;;;;;;;7.03;6.13;;;;;;;;;;5156059;27;20537;-82
2021/07/28 02:09:55;;;;;;;6.25;3.45;;;;;;;;;;5156040;27;20382;-82
2021/07/28 02:12:21;;;;;;;8.15;5.90;;;;;;;;;;5155902;27;20022;-82
2021/07/28 02:14:47;;;;;;;6.97;6.13;;;;;;;;;;5155913;27;20094;-81
2021/07/28 02:17:14;;;;;;;7.05;5.90;;;;;;;;;;5155831;27;20046;-82
2021/07/28 02:19:39;;;;;;;7.75;6.85;;;;;;;;;;5155748;27;20027;-82
2021/07/28 02:22:05;;;;;;;10.55;6.50;;;;;;;;;;5155762;27;20037;-82
2021/07/28 02:24:31;;;;;;;16.02;5.90;;;;;;;;;;5155721;27;20018;-81
2021/07/28 02:26:56;;;;;;;7.53;6.03;;;;;;;;;;5137465;27;20019;-81
2021/07/28 02:29:22;;;;;;;8.90;7.22;;;;;;;;;;5155586;27;20022;-82
2021/07/28 02:31:47;;;;;;;8.27;6.05;;;;;;;;;;5157329;27;20018;-81
2021/07/28 02:34:13;;;;;;;6.80;4.18;;;;;;;;;;5155567;27;20022;-81
2021/07/28 02:36:39;;;;;;;5.82;4.65;;;;;;;;;;5155645;27;20537;-81
2021/07/28 02:39:04;;;;;;;9.32;5.82;;;;;;;;;;5155537;27;20022;-81
2021/07/28 02:41:30;;;;;;;7.20;4.75;;;;;;;;;;5155471;27;20027;-81
2021/07/28 02:43:56;;;;;;;10.05;5.30;;;;;;;;;;5136888;27;20041;-81
2021/07/28 02:46:21;;;;;;;11.57;5.25;;;;;;;;;;5155462;27;20048;-82
2021/07/28 02:48:48;;;;;;;10.90;4.75;;;;;;;;;;5155415;27;20027;-82
2021/07/28 02:51:13;;;;;;;13.35;5.45;;;;;;;;;;5154533;27;20025;-82
2021/07/28 02:53:40;;;;;;;9.68;5.60;;;;;;;;;;5155428;27;20027;-82
2021/07/28 02:56:05;;;;;;;6.75;3.72;;;;;;;;;;5155512;27;20491;-82
2021/07/28 02:58:31;;;;;;;10.63;4.20;;;;;;;;;;5155286;27;20102;-82
2021/07/28 03:00:56;;;;;;;8.27;5.07;;;;;;;;;;5155143;27;20104;-82
2021/07/28 03:03:23;;;;;;;5.00;3.75;;;;;;;;;;5136871;27;20151;-82
2021/07/28 03:05:50;;;;;;;9.98;6.90;;;;;;;;;;5155210;27;20023;-82
2021/07/28 03:08:16;;;;;;;13.73;6.30;;;;;;;;;;5155140;27;20023;-82
2021/07/28 03:10:42;;;;;;;9.45;5.45;;;;;;;;;;5155467;27;20454;-82
2021/07/28 03:13:07;;;;;;;13.82;6.40;;;;;;;;;;5155791;27;20025;-82
2021/07/28 03:15:33;;;;;;;7.45;4.65;;;;;;;;;;5155093;27;20023;-82
2021/07/28 03:18:00;;;;;;;8.30;6.47;;;;;;;;;;5154925;27;20039;-82
2021/07/28 03:20:25;;;;;;;11.57;5.88;;;;;;;;;;5136453;27;20023;-82
2021/07/28 03:22:51;;;;;;;8.30;6.13;;;;;;;;;;5155160;27;20025;-81
2021/07/28 03:25:17;;;;;;;7.07;5.47;;;;;;;;;;5155359;27;20075;-82
2021/07/28 03:27:42;;;;;;;10.45;6.22;;;;;;;;;;5155579;27;20053;-82
2021/07/28 03:30:08;;;;;;;14.52;3.70;;;;;;;;;;5155141;27;20098;-82
2021/07/28 03:32:34;;;;;;;6.07;3.35;;;;;;;;;;5154981;27;20446;-83
2021/07/28 03:35:00;;;;;;;6.38;4.78;;;;;;;;;;5155251;27;20051;-82
2021/07/28 03:37:25;;;;;;;10.65;3.78;;;;;;;;;;5154910;27;20026;-82
2021/07/28 03:40:00;;;;;;;10.20;5.72;;;;;;;;;;5154769;27;20026;-82
2021/07/28 03:42:30;;;;;;;10.35;4.35;;;;;;;;;;5155191;27;20023;-83
2021/07/28 03:45:00;;;;;;;7.07;4.28;;;;;;;;;;5154832;27;20091;-82
2021/07/28 03:47:26;;;;;;;8.07;5.80;;;;;;;;;;5136283;27;20027;-82
2021/07/28 03:49:52;;;;;;;8.20;3.88;;;;;;;;;;5154827;27;20023;-82
2021/07/28 03:52:18;;;;;;;5.25;3.03;;;;;;;;;;5156549;27;20720;-82
2021/07/28 03:54:43;;;;;;;6.50;5.85;;;;;;;;;;5136261;27;20031;-82
2021/07/28 03:57:10;;;;;;;7.43;5.30;;;;;;;;;;5157300;27;20019;-82
2021/07/28 03:59:37;;;;;;;9.52;2.88;;;;;;;;;;5154595;27;20377;-82
2021/07/28 04:02:02;;;;;;;12.15;5.57;;;;;;;;;;5157140;27;20023;-82
2021/07/28 04:04:28;;;;;;;5.57;3.58;;;;;;;;;;5158560;27;20099;-82
2021/07/28 04:06:54;;;;;;;6.63;3.70;;;;;;;;;;5158487;27;20030;-81
2021/07/28 04:09:19;;;;;;;6.25;4.18;;;;;;;;;;5140395;27;20033;-82
2021/07/28 04:11:45;;;;;;;8.23;4.20;;;;;;;;;;5158391;27;20019;-82
2021/07/28 04:14:10;;;;;;;5.88;4.63;;;;;;;;;;5158805;27;20075;-82
2021/07/28 04:16:36;;;;;;;8.32;4.55;;;;;;;;;;5158132;27;20046;-83
2021/07/28 04:19:02;;;;;;;7.50;3.35;;;;;;;;;;5158361;27;20023;-82
2021/07/28 04:21:28;;;;;;;9.75;5.90;;;;;;;;;;5158103;27;20030;-83
2021/07/28 04:23:53;;;;;;;6.65;4.80;;;;;;;;;;5159370;27;20030;-82
2021/07/28 04:26:19;;;;;;;6.40;5.07;;;;;;;;;;5166123;27;20481;-83
2021/07/28 04:28:45;;;;;;;5.97;5.18;;;;;;;;;;5171674;27;20038;-82
2021/07/28 04:31:10;;;;;;;6.68;6.00;;;;;;;;;;5171047;27;20075;-82
2021/07/28 04:33:36;;;;;;;5.85;5.25;;;;;;;;;;5160133;27;20027;-82
2021/07/28 04:36:02;;;;;;;9.20;5.38;;;;;;;;;;5158321;27;20034;-82
2021/07/28 04:38:27;;;;;;;5.65;3.78;;;;;;;;;;5158520;27;20022;-82
2021/07/28 04:40:53;;;;;;;5.03;2.92;;;;;;;;;;5158221;27;20030;-82
2021/07/28 04:43:19;;;;;;;10.35;6.07;;;;;;;;;;5157744;27;20026;-82
2021/07/28 04:45:44;;;;;;;7.10;5.05;;;;;;;;;;5157827;27;20101;-83
2021/07/28 04:48:10;;;;;;;8.98;5.47;;;;;;;;;;5139070;27;20105;-81
2021/07/28 04:50:36;;;;;;;17.88;5.03;;;;;;;;;;5157650;27;20026;-82
2021/07/28 04:53:02;;;;;;;8.63;5.82;;;;;;;;;;5157852;27;20018;-81
2021/07/28 04:55:28;;;;;;;7.18;3.03;;;;;;;;;;5157523;27;20069;-84
2021/07/28 04:57:53;;;;;;;5.70;3.92;;;;;;;;;;5157782;27;20048;-83
2021/07/28 05:00:19;;;;;;;6.22;4.32;;;;;;;;;;5157403;27;20031;-83
2021/07/28 05:02:45;;;;;;;8.65;5.95;;;;;;;;;;5157788;27;20015;-85
2021/07/28 05:05:11;;;;;;;24.88;4.68;;;;;;;;;;5157286;27;20022;-84
2021/07/28 05:07:36;;;;;;;10.13;5.07;;;;;;;;;;5157332;27;20026;-82
2021/07/28 05:10:02;;;;;;;8.18;4.68;;;;;;;;;;5157261;27;20029;-83
2021/07/28 05:12:28;;;;;;;6.53;4.57;;;;;;;;;;5156803;27;20019;-82
2021/07/28 05:14:55;;;;;;;6.13;3.92;;;;;;;;;;5156484;27;20470;-83
2021/07/28 05:17:23;;;;;;;5.10;3.17;;;;;;;;;;5156924;27;20060;-83
2021/07/28 05:19:49;;;;;;;14.20;2.80;;;;;;;;;;5138446;27;20385;-83
2021/07/28 05:22:14;;;;;;;9.23;4.15;;;;;;;;;;5157050;27;20023;-84
2021/07/28 05:24:40;;;;;;;8.43;4.53;;;;;;;;;;5157016;27;20469;-83
2021/07/28 05:27:06;;;;;;;6.38;3.53;;;;;;;;;;5157058;27;20027;-84
2021/07/28 05:29:32;;;;;;;4.82;3.38;;;;;;;;;;5156861;27;20015;-82
2021/07/28 05:31:58;;;;;;;6.93;4.25;;;;;;;;;;5156706;27;20023;-83
2021/07/28 05:34:23;;;;;;;7.45;3.95;;;;;;;;;;5156945;27;20102;-83
2021/07/28 05:36:49;;;;;;;6.80;3.95;;;;;;;;;;5156823;27;20029;-83
2021/07/28 05:39:14;;;;;;;5.85;4.07;;;;;;;;;;5138145;27;20023;-84
2021/07/28 05:41:40;;;;;;;4.68;1.70;;;;;;;;;;5156750;27;20426;-85
2021/07/28 05:44:08;;;;;;;5.95;4.53;;;;;;;;;;5156786;27;20026;-86
2021/07/28 05:46:35;;;;;;;9.90;3.95;;;;;;;;;;5156740;27;20034;-85
2021/07/28 05:49:01;;;;;;;5.47;4.60;;;;;;;;;;5156643;27;20023;-85
2021/07/28 05:51:27;;;;;;;5.35;4.70;;;;;;;;;;5138044;27;20050;-85
2021/07/28 05:53:53;;;;;;;6.78;2.05;;;;;;;;;;5156576;27;20073;-81
2021/07/28 05:56:18;;;;;;;4.93;3.13;;;;;;;;;;5156568;27;20191;-82
2021/07/28 05:58:44;;;;;;;4.20;2.97;;;;;;;;;;5156485;27;20511;-83
2021/07/28 06:01:10;;;;;;;5.55;3.90;;;;;;;;;;5156814;27;20567;-83
2021/07/28 06:03:36;;;;;;;7.35;3.42;;;;;;;;;;5156730;27;20019;-83
2021/07/28 06:06:02;;;;;;;5.07;3.63;;;;;;;;;;5156751;27;20019;-83
2021/07/28 06:08:27;;;;;;;5.78;3.88;;;;;;;;;;5156701;27;20019;-83
2021/07/28 06:10:53;;;;;;;6.90;3.25;;;;;;;;;;5156305;27;20023;-83
2021/07/28 06:13:19;;;;;;;6.63;1.67;;;;;;;;;;5156839;27;20486;-83
2021/07/28 06:15:47;;;;;;;8.57;4.22;;;;;;;;;;5156162;27;20071;-85
2021/07/28 06:18:12;;;;;;;5.65;3.42;;;;;;;;;;5155784;27;20039;-84
2021/07/28 06:20:38;;;;;;;6.40;3.97;;;;;;;;;;5137170;27;20034;-84
2021/07/28 06:23:03;;;;;;;3.72;2.72;;;;;;;;;;5156356;27;20067;-84
2021/07/28 06:25:29;;;;;;;3.83;1.17;;;;;;;;;;5155825;27;20070;-84
2021/07/28 06:27:55;;;;;;;6.60;1.27;;;;;;;;;;5138418;27;20462;-83
2021/07/28 06:30:20;;;;;;;6.10;3.03;;;;;;;;;;5157105;27;20029;-83
2021/07/28 06:32:46;;;;;;;3.60;1.20;;;;;;;;;;5143491;27;20015;-84
2021/07/28 06:35:12;;;;;;;6.00;0.82;;;;;;;;;;5163423;27;20023;-85
2021/07/28 06:37:37;;;;;;;6.13;1.90;;;;;;;;;;5163161;27;20470;-83
2021/07/28 06:40:04;;;;;;;4.80;0.95;;;;;;;;;;5158189;27;20023;-83
2021/07/28 06:42:29;;;;;;;7.97;1.95;;;;;;;;;;5158047;27;20053;-84
2021/07/28 06:44:55;;;;;;;4.40;2.72;;;;;;;;;;5156808;27;20023;-84
2021/07/28 06:47:23;;;;;;;14.65;3.28;;;;;;;;;;5156527;27;20023;-83
2021/07/28 06:49:49;;;;;;;3.25;1.65;;;;;;;;;;5157396;27;20027;-84
2021/07/28 06:52:14;;;;;;;3.75;3.20;;;;;;;;;;5156087;27;20096;-85
2021/07/28 06:54:40;;;;;;;3.65;2.33;;;;;;;;;;5137246;27;20110;-83
2021/07/28 06:57:06;;;;;;;5.13;3.33;;;;;;;;;;5157071;27;20106;-84
2021/07/28 06:59:31;;;;;;;4.53;1.40;;;;;;;;;;5156022;27;20022;-83
2021/07/28 07:02:23;;;;;;;4.88;1.88;;;;;;;;;;5158100;27;20026;-84
2021/07/28 07:04:49;;;;;;;5.55;2.60;;;;;;;;;;5163313;27;20031;-83
2021/07/28 07:07:14;;;;;;;5.43;3.40;;;;;;;;;;5144186;27;20023;-84
2021/07/28 07:09:40;;;;;;;6.97;2.88;;;;;;;;;;5160585;27;20526;-85
2021/07/28 07:12:06;;;;;;;4.47;2.85;;;;;;;;;;5159888;27;20023;-85
2021/07/28 07:14:31;;;;;;;6.68;3.47;;;;;;;;;;5140739;27;20034;-83
2021/07/28 07:17:03;;;;;;;5.82;3.22;;;;;;;;;;5164796;27;20049;-82
2021/07/28 07:19:28;;;;;;;8.60;3.58;;;;;;;;;;5142167;27;20022;-84
2021/07/28 07:21:54;;;;;;;6.85;3.90;;;;;;;;;;5156565;27;20098;-84
2021/07/28 07:24:20;;;;;;;7.15;2.92;;;;;;;;;;5155198;27;20050;-83
2021/07/28 07:26:46;;;;;;;8.38;1.60;;;;;;;;;;5156219;27;20026;-83
2021/07/28 07:29:12;;;;;;;4.88;1.25;;;;;;;;;;5155233;27;20068;-83
2021/07/28 07:31:37;;;;;;;4.88;1.38;;;;;;;;;;5155956;27;20424;-84
2021/07/28 07:34:03;;;;;;;5.35;3.60;;;;;;;;;;5139227;27;20469;-83
2021/07/28 07:36:28;;;;;;;4.35;1.95;;;;;;;;;;5157234;27;20408;-82
2021/07/28 07:38:54;;;;;;;5.18;3.25;;;;;;;;;;5141216;27;20038;-82
2021/07/28 07:41:20;;;;;;;4.13;3.55;;;;;;;;;;5161001;27;20122;-82
2021/07/28 07:43:45;;;;;;;3.70;0.88;;;;;;;;;;5159705;27;20023;-82
2021/07/28 07:46:11;;;;;;;7.03;3.72;;;;;;;;;;5160288;27;20019;-80
2021/07/28 07:48:37;;;;;;;5.88;1.60;;;;;;;;;;5141678;27;20027;-80
2021/07/28 07:51:05;;;;;;;5.63;0.90;;;;;;;;;;5159328;27;20481;-81
2021/07/28 07:53:31;;;;;;;4.20;2.65;;;;;;;;;;5160146;27;20030;-81
2021/07/28 07:55:57;;;;;;;6.85;1.52;;;;;;;;;;5159743;27;20034;-80
2021/07/28 07:58:23;;;;;;;16.90;3.28;;;;;;;;;;5159922;27;20025;-81
2021/07/28 08:00:49;;;;;;;7.15;2.90;;;;;;;;;;5160095;27;20026;-81
2021/07/28 08:03:15;;;;;;;4.93;1.83;;;;;;;;;;5141891;27;20033;-80
2021/07/28 08:05:46;;;;;;;3.85;0.90;;;;;;;;;;5159495;27;20026;-81
2021/07/28 08:08:12;;;;;;;6.72;0.80;;;;;;;;;;5159146;27;20466;-81
2021/07/28 08:10:38;;;;;;;4.38;1.73;;;;;;;;;;5160035;27;20023;-81
2021/07/28 08:13:03;;;;;;;5.80;2.50;;;;;;;;;;5159707;27;20058;-81
2021/07/28 08:15:29;;;;;;;7.55;2.22;;;;;;;;;;5159272;27;20030;-81
2021/07/28 08:17:55;;;;;;;6.15;3.10;;;;;;;;;;5159114;27;20502;-80
2021/07/28 08:20:20;;;;;;;4.25;0.80;;;;;;;;;;5158919;27;20029;-80
2021/07/28 08:22:46;;;;;;;5.78;3.40;;;;;;;;;;5158453;27;20027;-80
2021/07/28 08:25:12;;;;;;;5.57;1.92;;;;;;;;;;5160035;27;20111;-81
2021/07/28 08:27:38;;;;;;;4.90;1.52;;;;;;;;;;5158899;27;20023;-81
2021/07/28 08:30:04;;;;;;;9.35;1.77;;;;;;;;;;5160122;27;20486;-81
2021/07/28 08:32:30;;;;;;;18.60;2.08;;;;;;;;;;5159630;27;20031;-82
2021/07/28 08:34:55;;;;;;;6.30;3.20;;;;;;;;;;5161537;27;20037;-82
2021/07/28 08:37:21;;;;;;;6.85;1.77;;;;;;;;;;5156488;27;20027;-81
2021/07/28 08:39:46;;;;;;;15.73;2.50;;;;;;;;;;5148979;27;20146;-80
2021/07/28 08:42:12;;;;;;;6.45;2.78;;;;;;;;;;5177306;27;20042;-80
2021/07/28 08:44:39;;;;;;;5.10;1.83;;;;;;;;;;5175712;27;20092;-80
2021/07/28 08:47:05;;;;;;;6.97;3.30;;;;;;;;;;5154680;27;20064;-80
2021/07/28 08:49:35;;;;;;;11.18;2.30;;;;;;;;;;5138533;27;20030;-80
2021/07/28 08:52:01;;;;;;;8.40;2.25;;;;;;;;;;5138205;27;20019;-81
2021/07/28 08:54:26;;;;;;;8.30;2.25;;;;;;;;;;5142328;27;20023;-81
2021/07/28 08:56:54;;;;;;;9.13;2.45;;;;;;;;;;5139188;27;20023;-81
2021/07/28 08:59:31;;;;;;;6.60;3.15;;;;;;;;;;5137666;27;20370;-80
2021/07/28 09:01:58;;;;;;;4.40;2.00;;;;;;;;;;5137480;27;20027;-81
2021/07/28 09:04:25;;;;;;;5.90;1.88;;;;;;;;;;5118960;27;20023;-80
2021/07/28 09:06:51;;;;;;;6.63;2.15;;;;;;;;;;5137294;27;20027;-80
2021/07/28 09:09:16;;;;;;;5.93;1.42;;;;;;;;;;5137315;27;20023;-81
2021/07/28 09:12:04;;;;;;;4.78;2.25;;;;;;;;;;5145039;27;20110;-81
2021/07/28 09:14:34;;;;;;;6.75;1.02;;;;;;;;;;5157630;27;20485;-80
2021/07/28 09:17:15;;;;;;;3.97;2.17;;;;;;;;;;5157191;27;20047;-81
2021/07/28 09:19:46;;;;;;;5.95;2.00;;;;;;;;;;5157973;27;20019;-82
2021/07/28 09:22:13;;;;;;;5.43;3.58;;;;;;;;;;5154640;27;20107;-82
2021/07/28 09:24:41;;;;;;;4.03;2.40;;;;;;;;;;5140244;27;20373;-82
2021/07/28 09:27:30;;;;;;;5.38;1.88;;;;;;;;;;5141186;27;20023;-82
2021/07/28 09:29:55;;;;;;;7.65;1.48;;;;;;;;;;5139557;27;20531;-82
2021/07/28 09:32:21;;;;;;;4.22;2.15;;;;;;;;;;5137735;27;20028;-82
2021/07/28 09:34:46;;;;;;;4.60;0.95;;;;;;;;;;5141864;27;20101;-82
2021/07/28 09:37:15;;;;;;;3.55;1.55;;;;;;;;;;5157296;27;20015;-81
2021/07/28 09:39:48;;;;;;;8.05;2.67;;;;;;;;;;5156986;27;20477;-82
2021/07/28 09:42:16;;;;;;;5.05;1.77;;;;;;;;;;5157264;27;20105;-82
2021/07/28 09:44:46;;;;;;;4.90;1.70;;;;;;;;;;5159122;27;20040;-82
2021/07/28 09:47:14;;;;;;;5.15;1.60;;;;;;;;;;5158233;27;20010;-81
2021/07/28 09:49:48;;;;;;;4.43;2.10;;;;;;;;;;5138442;27;20054;-82
2021/07/28 09:52:34;;;;;;;6.40;1.73;;;;;;;;;;5140029;27;20027;-82
2021/07/28 09:55:22;;;;;;;3.97;1.63;;;;;;;;;;5160834;27;20030;-82
2021/07/28 09:57:54;;;;;;;3.88;2.13;;;;;;;;;;5138844;27;20046;-82
2021/07/28 10:00:23;;;;;;;5.80;1.92;;;;;;;;;;5142378;27;20027;-82
2021/07/28 10:02:50;;;;;;;6.43;1.92;;;;;;;;;;5139604;27;20470;-81
2021/07/28 10:05:23;;;;;;;3.88;1.95;;;;;;;;;;5143959;27;20027;-81
2021/07/28 10:07:59;;;;;;;6.00;3.78;;;;;;;;;;5126249;27;20505;-82
2021/07/28 10:10:27;;;;;;;4.55;1.73;;;;;;;;;;5141213;27;20026;-82
2021/07/28 10:12:53;;;;;;;6.82;2.00;;;;;;;;;;5139303;27;20049;-82
2021/07/28 10:15:20;;;;;;;4.75;2.33;;;;;;;;;;5140806;27;20080;-82
2021/07/28 10:17:46;;;;;;;4.78;2.25;;;;;;;;;;5140118;27;20049;-82
2021/07/28 10:20:13;;;;;;;6.78;2.05;;;;;;;;;;5161767;27;20097;-85
2021/07/28 10:22:41;;;;;;;4.93;3.13;;;;;;;;;;5132979;27;20371;-84
2021/07/28 10:25:17;;;;;;;6.95;2.17;;;;;;;;;;5135807;27;20019;-82
2021/07/28 10:27:45;;;;;;;5.55;1.60;;;;;;;;;;5136235;27;20019;-82
2021/07/28 10:30:15;;;;;;;5.43;1.35;;;;;;;;;;5135678;27;20019;-83
2021/07/28 10:32:45;;;;;;;5.28;1.83;;;;;;;;;;5136085;27;20026;-83
2021/07/28 10:35:29;;;;;;;5.55;2.03;;;;;;;;;;5135358;27;20023;-82
2021/07/28 10:38:01;;;;;;;4.82;2.33;;;;;;;;;;5136205;27;20494;-81
2021/07/28 10:40:27;;;;;;;7.20;2.25;;;;;;;;;;5133912;27;20034;-81
2021/07/28 10:42:56;;;;;;;5.60;2.47;;;;;;;;;;5133398;27;20479;-81
2021/07/28 10:45:26;;;;;;;18.02;2.35;;;;;;;;;;5133974;27;20412;-81
2021/07/28 10:47:53;;;;;;;6.50;1.58;;;;;;;;;;5134701;27;20531;-81
2021/07/28 10:50:30;;;;;;;4.78;1.98;;;;;;;;;;5115872;27;20039;-82
2021/07/28 10:52:57;;;;;;;6.15;1.75;;;;;;;;;;5134099;27;20383;-81
2021/07/28 10:55:30;;;;;;;6.60;1.85;;;;;;;;;;5135101;27;20490;-81
2021/07/28 10:58:09;;;;;;;6.93;1.40;;;;;;;;;;5134809;27;20110;-81
2021/07/28 11:03:06;;;;;;;6.68;1.85;;;;;;;;;;5134978;27;20057;-82
2021/07/28 11:05:39;;;;;;;5.75;1.92;;;;;;;;;;5134555;28;20019;-81
2021/07/28 11:08:05;;;;;;;4.25;1.75;;;;;;;;;;5134504;28;20111;-81
2021/07/28 11:10:36;;;;;;;6.38;1.98;;;;;;;;;;5134650;27;20502;-81
2021/07/28 11:13:09;;;;;;;4.15;2.33;;;;;;;;;;5138038;27;20497;-81
2021/07/28 11:15:36;;;;;;;5.07;1.70;;;;;;;;;;5138937;27;20102;-82
2021/07/28 11:18:04;;;;;;;5.68;2.25;;;;;;;;;;5138583;27;20071;-80
2021/07/28 11:20:34;;;;;;;6.18;2.25;;;;;;;;;;5138679;27;20031;-82
2021/07/28 11:23:26;;;;;;;4.38;1.98;;;;;;;;;;5146886;27;20023;-82
2021/07/28 11:25:52;;;;;;;4.38;1.42;;;;;;;;;;5147542;27;20015;-82
2021/07/28 11:28:27;;;;;;;3.42;1.98;;;;;;;;;;5148405;27;20035;-82
2021/07/28 11:30:59;;;;;;;8.13;2.17;;;;;;;;;;5147537;27;20557;-83
2021/07/28 11:33:29;;;;;;;4.18;1.48;;;;;;;;;;5147765;27;20030;-82
2021/07/28 11:35:57;;;;;;;3.53;1.52;;;;;;;;;;5129925;27;20547;-82
2021/07/28 11:38:28;;;;;;;6.07;1.85;;;;;;;;;;5130204;27;20051;-82
2021/07/28 11:40:57;;;;;;;10.38;2.55;;;;;;;;;;5128655;27;20048;-82
2021/07/28 11:43:22;;;;;;;4.15;2.20;;;;;;;;;;5147855;27;20027;-82
2021/07/28 11:45:50;;;;;;;3.92;1.80;;;;;;;;;;5129992;27;20023;-81
2021/07/28 11:48:41;;;;;;;5.25;1.80;;;;;;;;;;5152899;27;20019;-81
2021/07/28 11:51:22;;;;;;;5.60;2.20;;;;;;;;;;5148303;27;20034;-83
2021/07/28 11:53:48;;;;;;;3.38;1.75;;;;;;;;;;5129539;27;20023;-82
2021/07/28 11:56:24;;;;;;;3.83;2.25;;;;;;;;;;5146636;27;20016;-82
2021/07/28 11:58:51;;;;;;;6.82;1.98;;;;;;;;;;5120349;27;20114;-82
2021/07/28 12:01:18;;;;;;;5.10;1.55;;;;;;;;;;5139518;27;20483;-82
2021/07/28 12:03:51;;;;;;;7.45;1.98;;;;;;;;;;5140739;27;20027;-82
2021/07/28 12:06:39;;;;;;;5.55;1.67;;;;;;;;;;5147816;27;20136;-83
2021/07/28 12:12:25;;;;;;;;;;;;;;;;;;;;;
2021/07/28 12:15:09;;;;;;;6.28;2.22;;;;;;;;;;5145245;27;20106;-81
2021/07/28 12:17:48;;;;;;;5.57;2.00;;;;;;;;;;5145888;27;20039;-82
2021/07/28 12:20:16;;;;;;;6.85;1.52;;;;;;;;;;5143338;27;20029;-82
2021/07/28 12:22:43;;;;;;;5.55;1.65;;;;;;;;;;5142396;27;20019;-81
2021/07/28 12:25:24;;;;;;;3.97;1.23;;;;;;;;;;5142530;27;20106;-82
2021/07/28 12:27:57;;;;;;;4.05;3.03;;;;;;;;;;5122049;27;20387;-80
2021/07/28 12:30:37;;;;;;;3.63;1.88;;;;;;;;;;5140221;27;20390;-80
2021/07/28 12:33:16;;;;;;;6.03;1.65;;;;;;;;;;5141595;27;20493;-82
2021/07/28 12:35:54;;;;;;;5.75;1.55;;;;;;;;;;5142144;27;20054;-82
2021/07/28 12:38:27;;;;;;;3.92;1.70;;;;;;;;;;5138681;27;20052;-82
2021/07/28 12:40:57;;;;;;;5.47;1.70;;;;;;;;;;5127342;27;20031;-81
2021/07/28 12:43:25;;;;;;;4.53;1.55;;;;;;;;;;5141560;27;20019;-81
2021/07/28 12:45:59;;;;;;;3.75;1.05;;;;;;;;;;5140346;27;20043;-83
2021/07/28 12:48:26;;;;;;;7.53;2.13;;;;;;;;;;5143543;27;20023;-83
2021/07/28 12:51:03;;;;;;;6.10;1.83;;;;;;;;;;5144850;27;20172;-85
2021/07/28 12:53:30;;;;;;;2.80;1.35;;;;;;;;;;5124021;27;20027;-85
2021/07/28 12:55:59;;;;;;;5.22;2.47;;;;;;;;;;5125592;27;20031;-82
2021/07/28 12:58:25;;;;;;;3.63;1.38;;;;;;;;;;5148230;27;20023;-80
2021/07/28 13:00:55;;;;;;;3.55;1.48;;;;;;;;;;5142043;27;20030;-81
2021/07/28 13:03:22;;;;;;;2.88;1.45;;;;;;;;;;5152995;27;20102;-81
2021/07/28 13:05:56;;;;;;;5.57;2.30;;;;;;;;;;5170649;27;20019;-81
2021/07/28 13:08:22;;;;;;;4.97;1.65;;;;;;;;;;5174429;27;20015;-82
2021/07/28 13:10:47;;;;;;;5.45;1.67;;;;;;;;;;5165599;27;20029;-81
2021/07/28 13:13:15;;;;;;;4.63;1.35;;;;;;;;;;5160148;27;20037;-81
2021/07/28 13:15:43;;;;;;;6.10;3.83;;;;;;;;;;5159211;27;20386;-80
2021/07/28 13:18:09;;;;;;;6.65;1.85;;;;;;;;;;5160339;27;20091;-81
2021/07/28 13:20:36;;;;;;;5.85;1.95;;;;;;;;;;5161035;27;20030;-81
2021/07/28 13:23:03;;;;;;;4.55;1.50;;;;;;;;;;5140545;27;20033;-81
2021/07/28 13:25:29;;;;;;;5.65;1.67;;;;;;;;;;5159912;27;20034;-80
2021/07/28 13:27:57;;;;;;;3.25;1.35;;;;;;;;;;5159645;27;20050;-82
2021/07/28 13:30:23;;;;;;;3.80;1.70;;;;;;;;;;5159271;27;20378;-81
2021/07/28 13:32:49;;;;;;;5.30;3.15;;;;;;;;;;5137854;27;20019;-81
2021/07/28 13:35:17;;;;;;;6.25;2.03;;;;;;;;;;5154331;27;20027;-82
2021/07/28 13:37:43;;;;;;;10.38;1.73;;;;;;;;;;5158023;27;20023;-82
2021/07/28 13:40:11;;;;;;;5.30;2.08;;;;;;;;;;5159717;27;20029;-82
2021/07/28 13:42:42;;;;;;;7.38;1.50;;;;;;;;;;5138405;27;20381;-81
2021/07/28 13:45:09;;;;;;;3.90;1.50;;;;;;;;;;5158179;27;20023;-82
2021/07/28 13:47:39;;;;;;;2.70;1.38;;;;;;;;;;5143820;27;20542;-83
2021/07/28 13:50:07;;;;;;;3.05;1.30;;;;;;;;;;5139453;27;20091;-82
2021/07/28 13:52:33;;;;;;;9.90;2.00;;;;;;;;;;5138785;27;20038;-81
2021/07/28 13:54:58;;;;;;;5.40;2.15;;;;;;;;;;5155699;27;20018;-82
2021/07/28 13:57:24;;;;;;;7.95;1.35;;;;;;;;;;5158431;27;20022;-81
2021/07/28 13:59:50;;;;;;;4.00;1.33;;;;;;;;;;5157674;27;20057;-81
2021/07/28 14:02:16;;;;;;;3.95;1.67;;;;;;;;;;5157977;27;20023;-81
2021/07/28 14:04:42;;;;;;;4.03;1.55;;;;;;;;;;5157688;27;20472;-80
2021/07/28 14:07:09;;;;;;;5.18;1.73;;;;;;;;;;5157191;27;20135;-80
2021/07/28 14:09:34;;;;;;;3.65;2.17;;;;;;;;;;5158292;27;20079;-79
2021/07/28 14:12:07;;;;;;;3.95;1.80;;;;;;;;;;5157498;27;20026;-81
2021/07/28 14:14:35;;;;;;;5.03;2.97;;;;;;;;;;5157315;27;20377;-80
2021/07/28 14:17:02;;;;;;;9.10;0.88;;;;;;;;;;5157060;27;20092;-79
2021/07/28 14:19:29;;;;;;;4.80;1.80;;;;;;;;;;5156572;27;20049;-79
2021/07/28 14:21:55;;;;;;;6.28;1.88;;;;;;;;;;5142890;27;20035;-80
2021/07/28 14:24:22;;;;;;;3.38;2.17;;;;;;;;;;5136868;27;20070;-79
2021/07/28 14:26:48;;;;;;;9.48;2.55;;;;;;;;;;5137554;27;20474;-79
2021/07/28 14:29:15;;;;;;;5.95;1.77;;;;;;;;;;5136950;27;20034;-82
2021/07/28 14:31:41;;;;;;;5.40;1.70;;;;;;;;;;5143975;27;20027;-80
2021/07/28 14:34:07;;;;;;;2.80;0.88;;;;;;;;;;5156861;27;20014;-81
2021/07/28 14:36:33;;;;;;;5.78;0.88;;;;;;;;;;5157018;27;20510;-80
2021/07/28 14:39:00;;;;;;;5.28;3.13;;;;;;;;;;5156394;27;20106;-81
2021/07/28 14:41:27;;;;;;;3.72;1.75;;;;;;;;;;5156301;27;20102;-81
2021/07/28 14:43:52;;;;;;;4.18;1.52;;;;;;;;;;5156517;27;20022;-80
2021/07/28 14:46:19;;;;;;;5.20;3.22;;;;;;;;;;5156485;27;20386;-81
2021/07/28 14:48:45;;;;;;;15.30;3.10;;;;;;;;;;5144080;27;20027;-81
2021/07/28 14:51:22;;;;;;;5.20;3.65;;;;;;;;;;5135710;27;20375;-79
2021/07/28 14:53:48;;;;;;;8.35;2.13;;;;;;;;;;5136187;27;20030;-79
2021/07/28 14:56:14;;;;;;;5.32;2.25;;;;;;;;;;5136057;27;20466;-79
2021/07/28 14:58:40;;;;;;;6.13;0.98;;;;;;;;;;5136034;27;20039;-78